Time;durP1;ratioP1;P1;durP2;ratioP2;P2;SDS_P1;SDS_P2;PMS_P1;PMS_P2;Temp;Humidity;BMP_temperature;BMP_pressure;BME280_temperature;BME280_humidity;BME280_pressure;Samples;Min_cycle;Max_cycle;Signal;HPM_P1;HPM_P2
2023/09/28 04:54:43;;;;;;;12.93;10.63;;;;;;;16.96;86.40;100676.06;4702362;30;20315;-74
2023/09/28 05:27:28;;;;;;;15.40;9.50;;;;;;;17.20;84.33;100715.97;4903460;28;20665;-74
2023/09/28 05:31:03;;;;;;;;;;;;;;;;;;;;;
2023/09/28 05:45:21;;;;;;;17.23;9.77;;;;;;;17.26;85.90;100728.63;4860212;29;20209;-74
2023/09/28 05:48:10;;;;;;;18.40;10.00;;;;;;;17.19;85.27;100730.41;4837868;29;20301;-74
2023/09/28 06:06:28;;;;;;;14.53;9.40;;;;;;;16.99;89.25;100750.69;5001083;22;20344;-73
2023/09/28 06:08:56;;;;;;;18.40;10.27;;;;;;;16.98;88.38;100765.94;5114841;28;20247;-72
2023/09/28 06:11:25;;;;;;;19.43;9.63;;;;;;;17.08;87.02;100758.47;5113725;28;20762;-75
2023/09/28 06:13:52;;;;;;;13.80;10.03;;;;;;;17.21;87.41;100760.53;5113962;28;20202;-72
2023/09/28 06:16:25;;;;;;;15.07;9.90;;;;;;;17.19;87.23;100770.59;5114453;28;20207;-72
2023/09/28 06:18:53;;;;;;;16.53;9.17;;;;;;;17.22;86.06;100773.75;5113783;28;20284;-72
2023/09/28 06:21:21;;;;;;;16.43;10.90;;;;;;;17.31;85.63;100769.13;5113256;28;20314;-71
2023/09/28 06:23:50;;;;;;;11.93;9.57;;;;;;;17.37;85.14;100765.69;5113073;28;20198;-71
2023/09/28 06:26:18;;;;;;;18.83;9.37;;;;;;;17.49;84.59;100774.13;5112280;28;20578;-73
2023/09/28 06:29:06;;;;;;;16.10;9.30;;;;;;;17.53;83.66;100770.03;5112817;28;20213;-71
2023/09/28 06:31:34;;;;;;;18.97;9.50;;;;;;;17.57;83.20;100766.81;5112921;28;20612;-73
2023/09/28 06:34:02;;;;;;;15.30;8.83;;;;;;;17.63;82.54;100759.88;5113611;28;20281;-71
2023/09/28 06:36:30;;;;;;;12.67;8.93;;;;;;;17.70;83.75;100759.97;5104542;28;20670;-69
2023/09/28 06:39:03;;;;;;;14.07;9.00;;;;;;;17.57;84.66;100756.09;5113028;28;20194;-70
2023/09/28 06:41:31;;;;;;;17.93;10.37;;;;;;;17.53;85.35;100752.09;5101936;28;20328;-69
2023/09/28 06:43:59;;;;;;;15.23;10.47;;;;;;;17.55;85.46;100760.78;5093429;28;20335;-71
2023/09/28 06:46:27;;;;;;;30.57;10.57;;;;;;;17.48;85.91;100757.19;5094067;28;20226;-73
2023/09/28 06:48:55;;;;;;;12.47;9.40;;;;;;;17.54;85.63;100772.53;5092096;28;20285;-75
2023/09/28 06:51:25;;;;;;;16.10;9.40;;;;;;;17.67;85.44;100774.59;5092823;28;20226;-69
2023/09/28 06:53:54;;;;;;;15.43;9.43;;;;;;;17.75;84.60;100779.88;5094651;28;20207;-73
2023/09/28 06:56:23;;;;;;;17.43;9.87;;;;;;;17.81;84.05;100783.63;5096173;28;20210;-72
2023/09/28 06:58:51;;;;;;;15.67;9.20;;;;;;;17.85;83.38;100784.94;5091926;28;20237;-71
2023/09/28 07:01:19;;;;;;;13.93;9.07;;;;;;;17.80;83.33;100774.75;5094316;28;20211;-71
2023/09/28 07:03:52;;;;;;;14.07;9.80;;;;;;;17.78;83.45;100778.63;5094260;28;20202;-72
2023/09/28 07:06:22;;;;;;;14.47;8.97;;;;;;;17.77;83.79;100782.34;5094832;28;20222;-72
2023/09/28 07:08:50;;;;;;;13.10;8.90;;;;;;;17.82;83.35;100782.63;5093099;28;21200;-72
2023/09/28 07:11:19;;;;;;;12.73;9.43;;;;;;;17.90;83.44;100791.41;5094615;28;20237;-71
2023/09/28 07:13:48;;;;;;;15.57;9.17;;;;;;;17.95;82.71;100788.13;5094178;28;20202;-72
2023/09/28 07:16:16;;;;;;;20.17;10.40;;;;;;;18.03;81.43;100793.38;5091293;28;20702;-73
2023/09/28 07:18:44;;;;;;;11.37;9.33;;;;;;;17.97;82.10;100794.97;5091841;28;20214;-71
2023/09/28 07:21:12;;;;;;;10.70;8.93;;;;;;;18.01;82.27;100790.09;5093943;28;20208;-71
2023/09/28 07:23:41;;;;;;;16.10;9.93;;;;;;;18.14;81.18;100789.38;5092228;28;20214;-72
2023/09/28 07:26:16;;;;;;;18.80;9.77;;;;;;;18.22;79.89;100786.56;5095477;28;20208;-71
2023/09/28 07:28:44;;;;;;;17.50;9.27;;;;;;;18.21;80.30;100784.91;5092535;28;20764;-71
2023/09/28 07:31:15;;;;;;;17.47;9.20;;;;;;;18.25;80.40;100781.66;5095145;28;20217;-72
2023/09/28 07:33:44;;;;;;;16.03;9.50;;;;;;;18.28;80.32;100794.72;5094016;28;20202;-72
2023/09/28 07:36:12;;;;;;;15.00;9.37;;;;;;;18.27;80.28;100786.84;5093294;28;20679;-71
2023/09/28 07:38:40;;;;;;;14.03;8.83;;;;;;;18.34;80.30;100788.59;5093829;28;20303;-71
2023/09/28 07:41:07;;;;;;;13.57;8.40;;;;;;;18.42;79.67;100788.47;5092954;28;20233;-73
2023/09/28 07:43:36;;;;;;;14.00;9.63;;;;;;;18.54;78.98;100796.00;5092123;28;20589;-71
2023/09/28 07:46:04;;;;;;;15.50;8.70;;;;;;;18.58;79.26;100800.81;5096768;28;20999;-72
2023/09/28 07:48:33;;;;;;;14.97;9.50;;;;;;;18.69;79.11;100815.59;5092193;28;20260;-71
2023/09/28 07:51:01;;;;;;;13.67;8.60;;;;;;;18.73;78.91;100822.25;5090149;28;20225;-72
2023/09/28 07:53:29;;;;;;;17.60;8.77;;;;;;;18.72;78.70;100820.59;5090183;28;20440;-69
2023/09/28 07:55:56;;;;;;;18.20;8.73;;;;;;;18.78;78.69;100830.56;5093228;28;20755;-68
2023/09/28 07:58:24;;;;;;;14.13;7.93;;;;;;;18.89;78.23;100827.38;5093985;28;20667;-70
2023/09/28 08:00:55;;;;;;;12.90;7.97;;;;;;;18.93;77.59;100817.88;5090289;28;20187;-72
2023/09/28 08:03:23;;;;;;;14.07;8.37;;;;;;;18.91;78.24;100814.53;5093755;28;20211;-71
2023/09/28 08:05:54;;;;;;;13.83;8.80;;;;;;;18.95;77.83;100821.22;5090215;28;20213;-72
2023/09/28 08:08:23;;;;;;;12.47;8.20;;;;;;;19.01;76.83;100809.66;5090773;28;20789;-72
2023/09/28 08:10:51;;;;;;;12.63;8.37;;;;;;;19.20;76.44;100813.53;5089859;28;20202;-70
2023/09/28 08:13:19;;;;;;;25.37;9.33;;;;;;;19.37;75.31;100811.38;5089257;28;20230;-70
2023/09/28 08:15:46;;;;;;;18.97;7.90;;;;;;;19.51;75.01;100805.94;5091976;28;20199;-71
2023/09/28 08:18:14;;;;;;;9.90;7.23;;;;;;;19.76;73.68;100806.25;5091981;28;20218;-70
2023/09/28 08:20:43;;;;;;;18.27;7.20;;;;;;;20.17;71.65;100816.97;5089123;28;20207;-72
2023/09/28 08:23:27;;;;;;;14.67;6.70;;;;;;;20.18;70.76;100812.44;5090717;28;20207;-71
2023/09/28 08:25:55;;;;;;;12.77;6.83;;;;;;;20.08;71.00;100811.97;5090078;28;20751;-72
2023/09/28 08:28:24;;;;;;;14.10;6.47;;;;;;;19.97;70.61;100815.22;5091992;28;20199;-71
2023/09/28 08:30:53;;;;;;;11.13;6.67;;;;;;;19.90;70.92;100809.84;5092427;28;20299;-72
2023/09/28 08:33:25;;;;;;;29.07;7.97;;;;;;;19.94;71.46;100810.28;5092819;28;20292;-72
2023/09/28 08:35:52;;;;;;;11.70;6.00;;;;;;;20.25;70.73;100821.34;5090430;28;20195;-71
2023/09/28 08:38:21;;;;;;;14.97;7.00;;;;;;;21.11;67.16;100816.13;5093408;28;20195;-75
2023/09/28 08:40:53;;;;;;;10.90;5.97;;;;;;;21.53;65.18;100809.44;5092828;28;20215;-71
2023/09/28 08:43:22;;;;;;;12.97;6.10;;;;;;;22.21;62.72;100817.91;5094702;28;21182;-73
2023/09/28 08:45:53;;;;;;;11.00;5.70;;;;;;;22.84;60.17;100811.50;5093185;28;20229;-70
2023/09/28 08:48:26;;;;;;;8.00;5.47;;;;;;;26.32;50.08;100819.31;5096930;28;20206;-72
2023/09/28 08:51:01;;;;;;;9.65;5.15;;;;;;;30.89;40.57;100815.31;5095518;28;20213;-77
2023/09/28 08:53:30;;;;;;;6.18;4.32;;;;;;;35.95;32.54;100802.03;5096824;28;20322;-79
2023/09/28 08:56:00;;;;;;;9.48;4.85;;;;;;;39.19;27.22;100803.09;5097645;28;20229;-72
2023/09/28 08:58:30;;;;;;;9.15;4.60;;;;;;;40.98;24.15;100796.63;5092688;28;20325;-70
2023/09/28 09:01:00;;;;;;;9.18;4.57;;;;;;;41.72;23.71;100798.31;5093664;28;20202;-69
2023/09/28 09:03:28;;;;;;;9.32;5.45;;;;;;;41.93;23.42;100810.16;5097110;28;20261;-70
2023/09/28 09:05:57;;;;;;;7.40;4.50;;;;;;;42.32;22.98;100802.16;5098749;28;20256;-70
2023/09/28 09:08:27;;;;;;;7.53;4.75;;;;;;;42.21;22.81;100806.63;5094534;28;20268;-68
2023/09/28 09:10:55;;;;;;;8.77;4.88;;;;;;;39.51;25.53;100805.25;5098577;27;20600;-70
2023/09/28 09:13:24;;;;;;;7.43;4.47;;;;;;;36.22;29.34;100812.22;5096178;28;20314;-71
2023/09/28 09:15:52;;;;;;;5.78;4.35;;;;;;;33.16;32.98;100807.13;5095599;27;20207;-73
2023/09/28 09:18:21;;;;;;;9.80;3.90;;;;;;;30.83;36.69;100801.91;5097852;28;20288;-72
2023/09/28 09:20:49;;;;;;;6.65;4.00;;;;;;;29.14;39.14;100799.63;5096173;28;20285;-70
2023/09/28 09:23:20;;;;;;;8.90;4.13;;;;;;;28.92;39.98;100790.75;5096620;28;20213;-70
2023/09/28 09:25:48;;;;;;;6.95;3.88;;;;;;;29.45;39.39;100792.50;5098084;28;20203;-71
2023/09/28 09:28:29;;;;;;;8.18;4.40;;;;;;;28.79;40.67;100797.47;5096921;28;20287;-70
2023/09/28 09:30:58;;;;;;;7.35;4.40;;;;;;;27.75;42.69;100785.16;5094839;28;20229;-69
2023/09/28 09:33:27;;;;;;;7.60;4.93;;;;;;;27.79;42.71;100787.13;5096022;28;20715;-73
2023/09/28 09:35:54;;;;;;;9.57;4.65;;;;;;;27.93;42.47;100788.38;5096122;28;20215;-70
2023/09/28 09:38:28;;;;;;;13.50;4.60;;;;;;;27.72;43.33;100794.66;5097915;28;20972;-69
2023/09/28 09:41:01;;;;;;;7.72;4.25;;;;;;;26.98;45.02;100793.31;5098925;28;20204;-69
2023/09/28 09:43:35;;;;;;;7.90;4.30;;;;;;;26.53;46.85;100796.88;5098469;28;20330;-70
2023/09/28 09:46:04;;;;;;;13.75;4.80;;;;;;;26.09;47.93;100793.03;5094695;28;20197;-68
2023/09/28 09:48:39;;;;;;;6.93;4.80;;;;;;;25.61;47.88;100796.94;5094359;28;20198;-68
2023/09/28 09:51:12;;;;;;;9.23;4.90;;;;;;;25.00;50.27;100787.41;5094478;28;20293;-70
2023/09/28 09:53:41;;;;;;;9.27;4.25;;;;;;;24.78;50.51;100791.72;5093063;28;20677;-68
2023/09/28 09:56:10;;;;;;;8.45;4.72;;;;;;;25.18;49.02;100786.47;5092349;28;20229;-69
2023/09/28 09:58:42;;;;;;;6.47;3.88;;;;;;;24.90;49.31;100786.28;5093573;28;20284;-70
2023/09/28 10:01:12;;;;;;;9.15;4.32;;;;;;;24.70;50.18;100789.34;5090475;28;20218;-70
2023/09/28 10:03:43;;;;;;;7.90;4.72;;;;;;;24.50;50.43;100796.97;5096767;28;20729;-70
2023/09/28 10:06:15;;;;;;;17.27;4.30;;;;;;;24.20;51.10;100797.75;5094160;28;20211;-70
2023/09/28 10:08:43;;;;;;;7.43;3.90;;;;;;;24.02;51.63;100798.63;5092158;28;20203;-70
2023/09/28 10:11:12;;;;;;;13.32;4.38;;;;;;;23.89;52.22;100796.09;5094730;28;20194;-69
2023/09/28 10:13:41;;;;;;;9.60;4.15;;;;;;;23.82;52.34;100794.53;5094482;28;20637;-70
2023/09/28 10:16:13;;;;;;;5.95;3.80;;;;;;;23.74;53.09;100797.56;5093824;28;20210;-71
2023/09/28 10:18:44;;;;;;;5.72;3.55;;;;;;;23.96;52.76;100794.13;5092662;28;20203;-68
2023/09/28 10:21:12;;;;;;;9.25;4.10;;;;;;;24.02;52.05;100793.19;5095211;28;20307;-70
2023/09/28 10:23:42;;;;;;;9.23;4.22;;;;;;;23.86;52.69;100798.41;5092819;28;20214;-69
2023/09/28 10:26:14;;;;;;;9.00;4.93;;;;;;;23.78;53.15;100796.03;5095409;28;20202;-79
2023/09/28 10:29:03;;;;;;;7.85;4.22;;;;;;;24.03;52.86;100794.03;5097616;28;20221;-76
2023/09/28 10:31:32;;;;;;;9.38;4.57;;;;;;;24.06;53.01;100788.16;5093473;28;20206;-77
2023/09/28 10:34:21;;;;;;;9.30;5.15;;;;;;;24.24;52.64;100788.16;5096807;28;20226;-77
2023/09/28 10:37:21;;;;;;;8.55;4.88;;;;;;;24.29;52.89;100793.69;5093326;28;20202;-79
2023/09/28 10:39:54;;;;;;;9.70;4.93;;;;;;;24.26;52.78;100788.75;5093508;28;20563;-80
2023/09/28 10:42:23;;;;;;;18.90;5.68;;;;;;;24.64;51.58;100790.25;5091309;28;20223;-71
2023/09/28 10:44:54;;;;;;;9.60;5.40;;;;;;;25.64;49.71;100796.47;5093013;28;20218;-72
2023/09/28 10:47:23;;;;;;;8.23;4.90;;;;;;;25.98;47.94;100791.19;5091192;28;20221;-72
2023/09/28 10:49:58;;;;;;;12.75;5.43;;;;;;;26.27;47.30;100801.03;5091980;28;20234;-71
2023/09/28 10:52:29;;;;;;;9.85;5.30;;;;;;;25.92;47.92;100803.03;5094713;28;20218;-71
2023/09/28 10:54:58;;;;;;;13.98;5.97;;;;;;;25.57;48.56;100805.78;5089942;28;20232;-71
2023/09/28 10:57:31;;;;;;;16.65;5.93;;;;;;;25.33;49.21;100805.78;5091338;28;20213;-69
2023/09/28 11:00:09;;;;;;;11.85;5.70;;;;;;;25.46;49.05;100804.75;5093056;28;20211;-69
2023/09/28 11:02:37;;;;;;;9.13;5.70;;;;;;;25.32;49.28;100806.06;5090990;28;20194;-72
2023/09/28 11:05:07;;;;;;;10.05;5.10;;;;;;;25.23;49.73;100805.59;5091605;28;20210;-70
2023/09/28 11:07:36;;;;;;;14.07;7.35;;;;;;;25.19;50.09;100803.56;5094029;28;20205;-72
2023/09/28 11:10:04;;;;;;;8.40;5.65;;;;;;;25.67;48.60;100795.19;5092296;28;20293;-69
2023/09/28 11:12:32;;;;;;;8.65;4.78;;;;;;;26.15;47.92;100794.78;5085014;28;20665;-70
2023/09/28 11:15:01;;;;;;;15.27;5.22;;;;;;;27.15;45.41;100797.66;5095884;28;20309;-70
2023/09/28 11:17:30;;;;;;;10.50;5.88;;;;;;;28.27;43.02;100786.31;5092314;28;20832;-70
2023/09/28 11:19:58;;;;;;;10.07;5.80;;;;;;;28.70;41.55;100788.09;5092347;28;20290;-70
2023/09/28 11:22:29;;;;;;;9.48;5.60;;;;;;;28.32;42.48;100780.13;5093815;28;20613;-69
2023/09/28 11:24:57;;;;;;;13.02;5.50;;;;;;;27.91;43.45;100766.00;5093819;28;20248;-70
2023/09/28 11:27:25;;;;;;;9.85;5.70;;;;;;;28.11;43.79;100772.75;5094010;28;20270;-68
2023/09/28 11:29:56;;;;;;;13.55;5.88;;;;;;;28.38;42.89;100763.53;5091805;28;20294;-71
2023/09/28 11:32:24;;;;;;;10.30;5.88;;;;;;;28.20;43.11;100757.63;5092431;28;20255;-70
2023/09/28 11:34:54;;;;;;;15.20;6.10;;;;;;;27.69;44.31;100759.75;5093428;28;20241;-69
2023/09/28 11:37:23;;;;;;;18.55;5.97;;;;;;;27.28;45.28;100753.72;5093863;28;20202;-71
2023/09/28 11:39:52;;;;;;;10.20;6.10;;;;;;;27.28;45.08;100758.34;5095165;28;20214;-69
2023/09/28 11:42:21;;;;;;;14.40;6.20;;;;;;;27.13;45.46;100749.97;5093253;28;20246;-69
2023/09/28 11:44:49;;;;;;;10.35;6.00;;;;;;;26.78;46.29;100748.34;5091528;28;20209;-68
2023/09/28 11:47:20;;;;;;;9.82;5.18;;;;;;;26.53;46.70;100746.03;5090623;28;20332;-69
2023/09/28 11:49:48;;;;;;;11.18;5.65;;;;;;;26.37;47.08;100748.75;5090934;28;20206;-70
2023/09/28 11:52:18;;;;;;;7.60;4.50;;;;;;;26.22;47.35;100747.34;5093754;28;20204;-70
2023/09/28 11:54:46;;;;;;;7.90;4.30;;;;;;;26.29;47.30;100755.41;5094452;28;20337;-69
2023/09/28 11:57:16;;;;;;;19.02;4.25;;;;;;;26.25;46.89;100748.75;5093066;28;20306;-69
2023/09/28 11:59:45;;;;;;;9.52;4.80;;;;;;;26.18;46.88;100739.94;5090590;28;20204;-71
2023/09/28 12:02:12;;;;;;;8.40;4.13;;;;;;;26.42;46.60;100732.50;5092706;28;20335;-70
2023/09/28 12:04:40;;;;;;;11.18;5.03;;;;;;;26.32;47.08;100744.03;5094636;28;20628;-69
2023/09/28 12:07:08;;;;;;;10.00;4.55;;;;;;;26.25;47.62;100737.88;5094009;28;20211;-68
2023/09/28 12:09:39;;;;;;;9.02;4.00;;;;;;;26.15;47.62;100733.09;5093325;28;20203;-69
2023/09/28 12:12:21;;;;;;;5.25;3.83;;;;;;;26.24;47.10;100728.91;5092033;28;20225;-69
2023/09/28 12:14:48;;;;;;;6.43;4.07;;;;;;;26.24;47.59;100728.91;5090348;28;20318;-68
2023/09/28 12:17:16;;;;;;;6.43;3.80;;;;;;;26.27;47.13;100727.63;5093652;28;20200;-70
2023/09/28 12:19:44;;;;;;;6.18;3.95;;;;;;;26.13;47.72;100728.97;5094878;28;20278;-69
2023/09/28 12:22:12;;;;;;;9.23;4.10;;;;;;;26.00;48.23;100730.09;5095900;28;20205;-69
2023/09/28 12:24:42;;;;;;;9.38;4.10;;;;;;;25.86;48.37;100715.97;5096962;28;20210;-71
2023/09/28 12:27:12;;;;;;;10.50;4.22;;;;;;;25.88;47.37;100709.47;5097089;28;20202;-69
2023/09/28 12:29:39;;;;;;;5.57;3.40;;;;;;;25.67;48.30;100703.69;5095738;28;20202;-70
2023/09/28 12:32:08;;;;;;;38.45;6.55;;;;;;;25.51;49.02;100709.81;5098175;28;20276;-68
2023/09/28 12:34:35;;;;;;;11.07;4.25;;;;;;;25.40;49.57;100707.97;5098420;28;20230;-69
2023/09/28 12:37:03;;;;;;;14.48;3.70;;;;;;;25.40;49.84;100697.13;5097369;28;20203;-70
2023/09/28 12:39:32;;;;;;;7.10;3.65;;;;;;;25.48;49.30;100699.44;5089240;28;20217;-69
2023/09/28 12:42:01;;;;;;;8.98;3.78;;;;;;;25.65;48.53;100689.50;5097184;28;20223;-69
2023/09/28 12:44:29;;;;;;;9.23;3.90;;;;;;;25.54;49.21;100684.91;5096925;28;20217;-69
2023/09/28 12:46:57;;;;;;;10.65;3.83;;;;;;;25.45;49.63;100678.19;5098373;28;20739;-70
2023/09/28 12:49:25;;;;;;;7.15;4.22;;;;;;;25.39;49.70;100674.56;5096751;28;20202;-69
2023/09/28 12:51:52;;;;;;;10.07;3.25;;;;;;;25.35;50.35;100672.56;5093771;28;20198;-69
2023/09/28 12:54:20;;;;;;;8.80;3.45;;;;;;;25.25;50.35;100672.34;5093063;28;20258;-69
2023/09/28 12:56:50;;;;;;;9.00;3.30;;;;;;;25.22;50.65;100678.28;5095296;28;20306;-70
2023/09/28 12:59:19;;;;;;;6.38;3.72;;;;;;;25.23;50.45;100674.50;5096972;28;20606;-70
2023/09/28 13:01:47;;;;;;;10.63;3.70;;;;;;;25.25;50.35;100675.88;5097714;28;20296;-70
2023/09/28 13:04:15;;;;;;;6.70;3.60;;;;;;;25.27;50.16;100676.47;5095777;28;20224;-70
2023/09/28 13:06:43;;;;;;;6.95;3.92;;;;;;;25.24;50.17;100671.56;5095082;28;20293;-69
2023/09/28 13:09:14;;;;;;;7.70;4.15;;;;;;;25.31;49.83;100676.84;5095479;28;20218;-70
2023/09/28 13:11:43;;;;;;;8.98;4.05;;;;;;;25.31;50.27;100671.41;5097893;28;20202;-70
2023/09/28 13:14:10;;;;;;;10.38;3.63;;;;;;;25.30;50.40;100667.03;5096661;28;20279;-73
2023/09/28 13:16:39;;;;;;;9.70;4.20;;;;;;;25.31;50.24;100671.41;5093880;28;20255;-70
2023/09/28 13:19:08;;;;;;;6.03;3.20;;;;;;;25.30;50.42;100664.31;5095775;28;20230;-71
2023/09/28 13:21:36;;;;;;;7.82;3.50;;;;;;;25.29;50.51;100663.50;5096416;28;20210;-69
2023/09/28 13:24:06;;;;;;;5.65;3.70;;;;;;;25.35;50.72;100661.69;5094399;28;20253;-69
2023/09/28 13:26:43;;;;;;;7.25;4.00;;;;;;;25.40;50.28;100664.53;5093422;28;20216;-68
2023/09/28 13:29:11;;;;;;;7.82;3.33;;;;;;;25.28;50.58;100661.03;5094084;28;20206;-69
2023/09/28 13:31:42;;;;;;;5.05;3.30;;;;;;;25.24;50.51;100663.41;5094536;28;20289;-69
2023/09/28 13:34:11;;;;;;;5.82;3.63;;;;;;;25.24;50.46;100659.88;5094243;28;20722;-69
2023/09/28 13:36:39;;;;;;;6.60;3.55;;;;;;;25.26;50.73;100661.25;5094580;28;20344;-69
2023/09/28 13:39:14;;;;;;;6.78;3.55;;;;;;;25.26;50.92;100657.72;5094424;28;20225;-69
2023/09/28 13:41:42;;;;;;;7.32;3.58;;;;;;;25.22;51.28;100657.38;5095449;28;20270;-68
2023/09/28 13:44:10;;;;;;;7.38;4.20;;;;;;;25.33;50.75;100658.44;5094560;28;20205;-68
2023/09/28 13:46:37;;;;;;;6.13;3.42;;;;;;;25.31;50.99;100657.84;5095841;28;20206;-70
2023/09/28 13:49:07;;;;;;;10.18;3.70;;;;;;;25.36;50.76;100655.22;5094549;28;20289;-70
2023/09/28 13:51:35;;;;;;;9.75;4.00;;;;;;;25.33;51.02;100653.00;5093971;28;20457;-68
2023/09/28 13:54:03;;;;;;;10.50;3.80;;;;;;;25.36;51.04;100657.94;5095573;28;20198;-69
2023/09/28 13:56:34;;;;;;;5.80;3.55;;;;;;;25.38;50.93;100658.50;5093547;28;20695;-69
2023/09/28 13:59:05;;;;;;;7.75;3.63;;;;;;;25.39;51.02;100662.88;5092257;28;20276;-68
2023/09/28 14:01:33;;;;;;;10.45;3.92;;;;;;;25.51;50.42;100657.44;5095146;28;20214;-69
2023/09/28 14:04:00;;;;;;;8.68;4.13;;;;;;;25.53;50.24;100652.56;5096373;28;20309;-69
2023/09/28 14:06:29;;;;;;;6.43;3.83;;;;;;;25.33;50.81;100648.38;5095732;28;20242;-69
2023/09/28 14:08:59;;;;;;;6.15;3.53;;;;;;;25.35;50.91;100646.25;5095952;28;20283;-70
2023/09/28 14:11:26;;;;;;;8.75;3.47;;;;;;;25.39;50.71;100646.59;5093945;28;20197;-69
2023/09/28 14:13:56;;;;;;;7.60;3.65;;;;;;;25.38;50.93;100645.78;5095740;28;20206;-69
2023/09/28 14:16:24;;;;;;;11.35;3.83;;;;;;;25.38;51.32;100639.50;5095611;28;20306;-68
2023/09/28 14:18:52;;;;;;;7.90;4.10;;;;;;;25.41;51.39;100639.03;5093720;28;20282;-70
2023/09/28 14:21:20;;;;;;;6.72;3.20;;;;;;;25.36;51.57;100637.03;5096350;28;20201;-69
2023/09/28 14:23:49;;;;;;;9.73;3.75;;;;;;;25.33;52.18;100634.00;5094201;28;20206;-69
2023/09/28 14:26:18;;;;;;;8.00;3.60;;;;;;;25.28;51.92;100640.13;5095655;28;20201;-69
2023/09/28 14:28:46;;;;;;;5.13;3.15;;;;;;;25.27;51.89;100635.78;5094354;28;20201;-69
2023/09/28 14:31:14;;;;;;;7.97;4.10;;;;;;;25.28;51.86;100644.75;5094300;28;20275;-70
2023/09/28 14:33:42;;;;;;;6.47;4.00;;;;;;;25.25;51.88;100634.34;5094100;28;20210;-69
2023/09/28 14:36:11;;;;;;;5.00;3.17;;;;;;;25.26;51.81;100636.00;5095230;28;20699;-70
2023/09/28 14:38:40;;;;;;;6.20;3.50;;;;;;;25.26;52.08;100636.00;5092615;28;20206;-69
2023/09/28 14:41:09;;;;;;;6.20;3.60;;;;;;;25.23;52.04;100634.63;5093168;28;20199;-68
2023/09/28 14:43:38;;;;;;;10.65;3.22;;;;;;;25.20;51.88;100636.97;5091374;28;20951;-69
2023/09/28 14:46:06;;;;;;;9.63;3.58;;;;;;;25.18;52.11;100628.25;5092823;28;20221;-69
2023/09/28 14:48:34;;;;;;;10.43;4.20;;;;;;;25.17;52.63;100623.88;5093735;28;20309;-71
2023/09/28 14:51:02;;;;;;;7.45;3.78;;;;;;;25.16;52.89;100624.94;5094775;28;20209;-69
2023/09/28 14:53:30;;;;;;;7.22;4.20;;;;;;;25.16;52.53;100619.50;5093162;28;20206;-69
2023/09/28 14:55:57;;;;;;;8.82;3.67;;;;;;;25.21;51.99;100619.63;5093162;28;20781;-69
2023/09/28 14:58:27;;;;;;;6.88;3.72;;;;;;;25.18;52.55;100622.81;5093551;28;20216;-70
2023/09/28 15:00:55;;;;;;;8.45;4.00;;;;;;;25.20;52.29;100626.94;5091272;28;20310;-69
2023/09/28 15:03:23;;;;;;;8.65;4.05;;;;;;;25.17;52.46;100616.56;5092831;28;20266;-69
2023/09/28 15:05:51;;;;;;;12.32;4.97;;;;;;;25.16;52.67;100616.78;5091881;28;20663;-70
2023/09/28 15:08:19;;;;;;;9.48;4.80;;;;;;;25.14;52.98;100610.81;5090663;28;20207;-70
2023/09/28 15:10:46;;;;;;;8.57;4.30;;;;;;;25.14;52.70;100606.22;5093280;28;20290;-69
2023/09/28 15:13:17;;;;;;;10.85;4.60;;;;;;;25.13;52.79;100606.44;5092035;28;20269;-69
2023/09/28 15:15:46;;;;;;;9.93;4.80;;;;;;;25.20;52.44;100598.97;5091089;28;20659;-69
2023/09/28 15:18:14;;;;;;;8.10;4.45;;;;;;;25.22;52.35;100596.84;5092677;28;20202;-69
2023/09/28 15:20:43;;;;;;;9.25;4.55;;;;;;;25.11;52.56;100607.50;5094101;28;20202;-69
2023/09/28 15:23:12;;;;;;;9.15;4.20;;;;;;;25.05;52.52;100597.63;5093409;28;20730;-68
2023/09/28 15:25:40;;;;;;;7.32;4.22;;;;;;;25.01;52.59;100596.44;5094072;28;20666;-70
2023/09/28 15:28:09;;;;;;;7.78;4.47;;;;;;;24.98;52.65;100602.34;5098147;28;20303;-70
2023/09/28 15:30:39;;;;;;;13.20;4.25;;;;;;;24.92;53.07;100602.47;5092564;28;20589;-70
2023/09/28 15:33:08;;;;;;;9.23;3.67;;;;;;;24.88;53.28;100596.69;5093721;28;20210;-68
2023/09/28 15:35:36;;;;;;;10.48;4.70;;;;;;;24.87;53.18;100611.31;5088708;28;20209;-68
2023/09/28 15:38:06;;;;;;;7.32;4.03;;;;;;;24.84;53.66;100605.53;5090496;28;20198;-69
2023/09/28 15:40:35;;;;;;;10.60;4.15;;;;;;;24.84;53.81;100606.34;5092261;28;20203;-69
2023/09/28 15:43:03;;;;;;;10.20;3.95;;;;;;;24.78;53.64;100595.63;5092086;28;20222;-68
2023/09/28 15:45:31;;;;;;;13.70;4.43;;;;;;;24.74;53.77;100595.28;5089483;28;20208;-69
2023/09/28 15:47:59;;;;;;;10.23;4.63;;;;;;;24.73;54.20;100593.63;5090093;28;20227;-70
2023/09/28 15:50:28;;;;;;;10.02;4.55;;;;;;;24.73;54.02;100609.91;5089850;28;20209;-70
2023/09/28 15:52:56;;;;;;;9.07;4.22;;;;;;;24.73;53.88;100596.34;5090963;28;20293;-70
2023/09/28 15:55:24;;;;;;;9.23;4.25;;;;;;;24.72;54.00;100597.41;5096745;28;20348;-69
2023/09/28 15:57:52;;;;;;;9.85;4.07;;;;;;;24.70;53.79;100602.25;5097371;28;20267;-68
2023/09/28 16:00:19;;;;;;;11.15;4.22;;;;;;;24.65;53.76;100602.13;5097296;28;20217;-69
2023/09/28 16:03:04;;;;;;;10.40;4.90;;;;;;;24.62;54.06;100606.16;5098603;28;20201;-68
2023/09/28 16:05:33;;;;;;;7.15;4.22;;;;;;;24.60;54.31;100607.44;5097558;28;20292;-69
2023/09/28 16:08:04;;;;;;;8.10;4.55;;;;;;;24.57;54.20;100607.91;5096908;28;20240;-69
2023/09/28 16:10:32;;;;;;;9.15;4.43;;;;;;;24.55;54.23;100608.13;5097687;28;20244;-69
2023/09/28 16:13:00;;;;;;;12.27;4.55;;;;;;;24.55;54.05;100612.72;5097150;28;20267;-73
2023/09/28 16:15:28;;;;;;;10.18;4.57;;;;;;;24.50;54.55;100612.63;5097299;28;20206;-70
2023/09/28 16:17:55;;;;;;;10.77;4.50;;;;;;;24.46;54.59;100620.41;5094876;28;20332;-69
2023/09/28 16:20:23;;;;;;;7.90;4.38;;;;;;;24.47;54.68;100615.81;5097428;28;20237;-70
2023/09/28 16:22:52;;;;;;;10.75;4.22;;;;;;;24.47;54.85;100621.22;5096870;28;20203;-68
2023/09/28 16:25:20;;;;;;;11.35;4.25;;;;;;;24.44;54.98;100613.59;5095702;28;20841;-69
2023/09/28 16:27:48;;;;;;;7.28;4.25;;;;;;;24.41;55.19;100617.56;5096957;28;20211;-69
2023/09/28 16:30:16;;;;;;;11.48;4.80;;;;;;;24.40;55.26;100617.81;5094503;28;20273;-70
2023/09/28 16:32:44;;;;;;;14.48;4.15;;;;;;;24.36;55.17;100615.56;5096837;28;20279;-68
2023/09/28 16:35:11;;;;;;;9.75;4.50;;;;;;;24.36;55.71;100609.34;5095964;28;20297;-69
2023/09/28 16:37:39;;;;;;;7.22;4.10;;;;;;;24.33;55.82;100615.22;5095217;28;20230;-70
2023/09/28 16:40:09;;;;;;;10.45;4.78;;;;;;;24.30;55.84;100616.50;5095937;28;20576;-69
2023/09/28 16:42:37;;;;;;;13.70;4.95;;;;;;;24.25;55.94;100610.16;5097931;28;20240;-69
2023/09/28 16:45:07;;;;;;;9.73;4.20;;;;;;;24.23;56.48;100612.25;5096196;28;20294;-69
2023/09/28 16:47:34;;;;;;;11.95;4.45;;;;;;;24.21;56.01;100619.78;5092502;28;20303;-69
2023/09/28 16:50:03;;;;;;;10.93;3.85;;;;;;;24.17;56.31;100613.19;5097787;28;20199;-70
2023/09/28 16:52:30;;;;;;;15.38;4.25;;;;;;;24.11;56.32;100614.09;5095630;28;20209;-71
2023/09/28 16:54:58;;;;;;;10.85;4.15;;;;;;;24.06;57.07;100614.81;5098005;28;20213;-71
2023/09/28 16:57:27;;;;;;;7.68;4.20;;;;;;;23.99;56.93;100614.91;5092974;28;20699;-70
2023/09/28 16:59:55;;;;;;;8.80;4.20;;;;;;;23.95;57.42;100602.88;5095486;28;20199;-70
2023/09/28 17:02:23;;;;;;;10.30;4.03;;;;;;;23.90;57.53;100615.47;5093065;28;20210;-69
2023/09/28 17:04:53;;;;;;;17.08;4.70;;;;;;;23.83;57.97;100614.75;5095390;28;20331;-70
2023/09/28 17:07:21;;;;;;;11.00;6.30;;;;;;;23.75;58.11;100618.59;5096387;28;20211;-69
2023/09/28 17:09:49;;;;;;;14.45;6.28;;;;;;;23.68;58.53;100615.16;5097794;28;20209;-68
2023/09/28 17:12:16;;;;;;;12.02;5.97;;;;;;;23.64;58.80;100616.69;5093148;28;20686;-71
2023/09/28 17:15:01;;;;;;;9.70;5.68;;;;;;;23.56;59.15;100612.44;5094105;28;20206;-69
2023/09/28 17:17:29;;;;;;;12.77;7.43;;;;;;;23.51;59.40;100616.88;5096329;28;20222;-70
2023/09/28 17:19:57;;;;;;;14.75;6.07;;;;;;;23.43;59.62;100620.69;5093015;28;20205;-69
2023/09/28 17:22:24;;;;;;;7.55;5.47;;;;;;;23.38;60.34;100622.44;5098581;28;20224;-69
2023/09/28 17:24:52;;;;;;;14.95;5.90;;;;;;;23.31;60.79;100619.81;5095735;28;20199;-70